New Paltz, NY (12561)

11:10 PM EST on February 09, 2016 (GMT -0500)
Town of Lloyd | | Change Station
CLOSE
Current Station
Personal Weather Station
Location: Highland, NY
Elevation: 427 ft
Nearby Weather Stations

Elev 427 ft 41.72 °N, 74.01 °W | Updated 20 seconds ago

Overcast
Overcast
29.1 °F
Feels Like 29 °F
N
0.0
Wind Variable Wind from SW
Gusts 0.0 mph

Today
High -- | Low -- °F
--% Chance of Precip.
Yesterday
High -- | Low -- °F
Precip. -- in
Pressure 29.59 in
Visibility 10.0 miles
Clouds Overcast 6500 ft
Windchill 29 °F
Dew Point 22 °F
Humidity 74%
Rainfall 0.02 in
Snow Depth Not available.
7:00 AM 5:21 PM
Waxing Crescent, 3% visible
METAR KPOU 100353Z AUTO 13004KT 10SM OVC065 M01/M04 A2959 RMK AO2 SLP018 T10061039
Pressure 29.59 in
Visibility 10.0 miles
Clouds Overcast 6500 ft
Windchill 29 °F
Dew Point 22 °F
Humidity 74%
Rainfall 0.02 in
Snow Depth Not available.
7:00 AM 5:21 PM
Waxing Crescent, 3% visible
METAR KPOU 100353Z AUTO 13004KT 10SM OVC065 M01/M04 A2959 RMK AO2 SLP018 T10061039

10-Day Weather Forecast

Almanac

Astronomy

Feb. 09, 2016 Rise Set
Actual Time
Civil Twilight
Nautical Twilight
Astronomical Twilight
Moon
Length of Visible Light
Length of Day
Tomorrow will be .
, % of the Moon is Illuminated

Today's Extremes

State Highs State Lows

Community

WunderPhotos

Upload Photos

1,891,795 photos uploaded!

WunderBlog® & News

Nearby

Air Quality

  Air Quality AQ Index Pollutant
Not available.

Snow Depth

Station Depth Elevation

Earthquake Activity

City Distance Mag. Time & Date
Minimum magnitude displayed is 2.5.

Coastal Water Temperatures

Place Temperature

Stations

Nearby Weather Stations

Station Location Temp. Windchill Dew Point Humidity Wind Precip. Elev Updated Type
                   

Watches & Warnings

There are currently no watches in effect.